createdAt,value
2023-02-19T00:00:02.150Z,1006.8012203592058
2023-02-19T00:15:02.271Z,1007.0894026603529
2023-02-19T00:30:01.975Z,1006.8926787332327
2023-02-19T00:45:01.699Z,1006.8670857773277
2023-02-19T01:00:02.384Z,1006.7659264779021
2023-02-19T01:15:02.001Z,1006.8337782942585
2023-02-19T01:30:01.728Z,1006.7853598179402
2023-02-19T01:45:02.396Z,1006.6957938323741
2023-02-19T02:00:02.094Z,1006.6393450474018
2023-02-19T02:15:01.791Z,1006.5975497527185
2023-02-19T02:30:02.522Z,1006.6698456791893
2023-02-19T02:45:02.206Z,1006.6634122978458
2023-02-19T03:00:01.850Z,1006.6072072975511
2023-02-19T03:15:01.622Z,1006.7439327873719
2023-02-19T03:30:02.359Z,1006.8232243150563
2023-02-19T03:45:02.006Z,1006.9721398883459
2023-02-19T04:00:01.635Z,1007.1025927270026
2023-02-19T04:15:02.306Z,1007.2965390533386
2023-02-19T04:30:02.073Z,1007.2776465095765
2023-02-19T04:45:01.747Z,1007.764567607643
2023-02-19T05:00:02.354Z,1008.0506367532835
2023-02-19T05:15:01.992Z,1008.2414130802389
2023-02-19T05:30:01.721Z,1008.3429844698825
2023-02-19T05:45:01.395Z,1008.9215267765186
2023-02-19T06:00:02.059Z,1009.0876551734968
2023-02-19T06:15:01.720Z,1009.4072594389467
2023-02-19T06:30:01.376Z,1009.9105054281641
2023-02-19T06:45:02.051Z,1010.3238786222105
2023-02-19T07:00:01.688Z,1010.7843576632662
2023-02-19T07:15:01.302Z,1011.1542242745348
2023-02-19T07:30:02.052Z,1011.4590128048152
2023-02-19T07:45:01.762Z,1011.5979233009016
2023-02-19T08:00:01.397Z,1012.004532239263
2023-02-19T08:15:02.361Z,1012.3409220961826
2023-02-19T08:30:02.122Z,1012.489829859981
2023-02-19T08:45:01.838Z,1012.5389858275827
2023-02-19T09:00:02.465Z,1012.9462632799767
2023-02-19T09:15:02.101Z,1013.2371298861294
2023-02-19T09:30:01.782Z,1013.5034274931645
2023-02-19T09:45:02.450Z,1013.8400809604798
2023-02-19T10:00:02.081Z,1014.1411240400063
2023-02-19T10:15:01.734Z,1014.5364112173337
2023-02-19T10:30:02.467Z,1014.6974681666285
2023-02-19T10:45:02.154Z,1014.8590417399946
2023-02-19T11:00:01.803Z,1014.9636125787854
2023-02-19T11:15:01.417Z,1015.266267167142
2023-02-19T11:30:02.275Z,1015.1553530286748
2023-02-19T11:45:01.946Z,1014.8935728310727
2023-02-19T12:00:01.565Z,1014.9006262105851
2023-02-19T12:15:02.264Z,1015.0662335721431
2023-02-19T12:30:02.045Z,1015.3250396758141
2023-02-19T12:45:01.702Z,1015.4096036571817
2023-02-19T13:00:02.328Z,1015.4206943002416
2023-02-19T13:15:01.998Z,1015.4510438527833
2023-02-19T13:30:01.721Z,1015.4090624410445
2023-02-19T13:45:01.413Z,1015.4291527799974
2023-02-19T14:00:02.034Z,1015.6176324458922
2023-02-19T14:15:01.653Z,1015.893276913974
2023-02-19T14:30:01.339Z,1015.9868115585483
2023-02-19T14:45:02.019Z,1015.76843748513
2023-02-19T15:00:01.696Z,1015.3122122167686
2023-02-19T15:15:01.347Z,1015.0932617226796
2023-02-19T15:30:02.104Z,1015.0501940158148
2023-02-19T15:45:01.788Z,1015.3139528334945
2023-02-19T16:00:01.532Z,1015.545501146324
2023-02-19T16:15:02.555Z,1015.6057421715315
2023-02-19T16:30:02.276Z,1015.749384779875
2023-02-19T16:45:01.945Z,1015.8483225436767
2023-02-19T17:00:01.610Z,1015.8369527047215
2023-02-19T17:15:02.231Z,1016.0599899289731
2023-02-19T17:30:01.980Z,1016.0900721066566
2023-02-19T17:45:01.669Z,1015.9900472900357
2023-02-19T18:00:02.312Z,1016.0827914528152
2023-02-19T18:15:01.998Z,1016.354014826819
2023-02-19T18:30:01.836Z,1016.4467704393413
2023-02-19T18:45:01.551Z,1016.4057634888683
2023-02-19T19:00:02.223Z,1016.4359392604883
2023-02-19T19:15:01.885Z,1016.38105275742
2023-02-19T19:30:01.619Z,1016.3086722093216
2023-02-19T19:45:02.385Z,1016.4998134497916
2023-02-19T20:00:02.079Z,1016.5925666968053
2023-02-19T20:15:01.739Z,1016.5015764405767
2023-02-19T20:30:01.414Z,1016.4031305192934
2023-02-19T20:45:02.098Z,1016.2427865761597
2023-02-19T21:00:01.739Z,1016.5111696732389
2023-02-19T21:15:01.385Z,1016.6397991001895
2023-02-19T21:30:02.055Z,1016.4977692672571
2023-02-19T21:45:01.685Z,1016.2474350860269
2023-02-19T22:00:01.298Z,1016.2190256122215
2023-02-19T22:15:01.972Z,1016.0918548261235
2023-02-19T22:30:01.623Z,1016.1530765730179
2023-02-19T22:45:01.291Z,1016.3776579367365
2023-02-19T23:00:01.938Z,1016.3713994517551
2023-02-19T23:15:01.605Z,1016.5001087465866
2023-02-19T23:30:01.302Z,1016.4419835069401
2023-02-19T23:45:01.981Z,1016.407123258251
